sensor_id;sensor_type;location;lat;lon;timestamp;P1;durP1;ratioP1;P2;durP2;ratioP2
51374;SDS011;37465;52.738;4.752;2023-02-28T15:04:22;2.53;;;1.42;;
51374;SDS011;37465;52.738;4.752;2023-02-28T15:14:29;1.67;;;1.35;;
51374;SDS011;37465;52.738;4.752;2023-02-28T15:16:57;4.40;;;3.05;;
51374;SDS011;37465;52.738;4.752;2023-02-28T15:19:30;2.30;;;1.73;;
51374;SDS011;37465;52.738;4.752;2023-02-28T15:22:00;3.13;;;1.75;;
51374;SDS011;37465;52.738;4.752;2023-02-28T15:24:31;3.42;;;2.15;;
51374;SDS011;37465;52.738;4.752;2023-02-28T15:27:04;2.88;;;2.30;;
51374;SDS011;37465;52.738;4.752;2023-02-28T15:29:36;1.90;;;1.48;;
51374;SDS011;37465;52.738;4.752;2023-02-28T15:32:16;4.22;;;2.00;;
51374;SDS011;37465;52.738;4.752;2023-02-28T15:34:52;2.55;;;2.05;;
51374;SDS011;37465;52.738;4.752;2023-02-28T15:39:56;2.33;;;1.77;;
51374;SDS011;37465;52.738;4.752;2023-02-28T15:42:27;2.67;;;1.52;;
51374;SDS011;37465;52.738;4.752;2023-02-28T15:44:56;2.55;;;1.70;;
51374;SDS011;37465;52.738;4.752;2023-02-28T15:47:24;3.40;;;1.73;;
51374;SDS011;37465;52.738;4.752;2023-02-28T15:49:55;2.20;;;1.80;;
51374;SDS011;37465;52.738;4.752;2023-02-28T15:52:28;4.30;;;2.30;;
51374;SDS011;37465;52.738;4.752;2023-02-28T15:54:57;3.28;;;2.25;;
51374;SDS011;37465;52.738;4.752;2023-02-28T15:57:27;4.68;;;2.60;;
51374;SDS011;37465;52.738;4.752;2023-02-28T15:59:56;4.03;;;2.50;;
51374;SDS011;37465;52.738;4.752;2023-02-28T16:02:29;3.60;;;2.08;;
51374;SDS011;37465;52.738;4.752;2023-02-28T16:05:00;2.20;;;2.00;;
51374;SDS011;37465;52.738;4.752;2023-02-28T16:07:40;2.65;;;1.92;;
51374;SDS011;37465;52.738;4.752;2023-02-28T16:10:09;4.10;;;2.58;;
51374;SDS011;37465;52.738;4.752;2023-02-28T16:12:38;3.03;;;2.22;;
51374;SDS011;37465;52.738;4.752;2023-02-28T16:15:07;4.63;;;2.78;;
51374;SDS011;37465;52.738;4.752;2023-02-28T16:17:37;7.05;;;4.50;;
51374;SDS011;37465;52.738;4.752;2023-02-28T16:20:11;6.63;;;3.35;;
51374;SDS011;37465;52.738;4.752;2023-02-28T16:22:40;3.35;;;2.65;;
51374;SDS011;37465;52.738;4.752;2023-02-28T16:25:11;5.43;;;2.67;;
51374;SDS011;37465;52.738;4.752;2023-02-28T16:27:39;3.75;;;2.55;;
51374;SDS011;37465;52.738;4.752;2023-02-28T16:30:09;2.38;;;2.17;;
51374;SDS011;37465;52.738;4.752;2023-02-28T16:32:43;6.50;;;3.50;;
51374;SDS011;37465;52.738;4.752;2023-02-28T16:35:12;3.80;;;3.00;;
51374;SDS011;37465;52.738;4.752;2023-02-28T16:37:40;4.57;;;3.80;;
51374;SDS011;37465;52.738;4.752;2023-02-28T16:40:09;5.03;;;3.88;;
51374;SDS011;37465;52.738;4.752;2023-02-28T16:42:41;5.05;;;3.70;;
51374;SDS011;37465;52.738;4.752;2023-02-28T16:45:16;4.93;;;3.13;;
51374;SDS011;37465;52.738;4.752;2023-02-28T16:47:45;3.50;;;3.20;;
51374;SDS011;37465;52.738;4.752;2023-02-28T16:50:15;4.45;;;3.30;;
51374;SDS011;37465;52.738;4.752;2023-02-28T16:52:45;3.83;;;3.50;;
51374;SDS011;37465;52.738;4.752;2023-02-28T16:55:12;7.35;;;5.88;;
51374;SDS011;37465;52.738;4.752;2023-02-28T16:57:40;6.78;;;4.43;;
51374;SDS011;37465;52.738;4.752;2023-02-28T17:00:10;4.40;;;3.40;;
51374;SDS011;37465;52.738;4.752;2023-02-28T17:02:39;4.20;;;2.97;;
51374;SDS011;37465;52.738;4.752;2023-02-28T17:05:08;5.03;;;3.50;;
51374;SDS011;37465;52.738;4.752;2023-02-28T17:07:39;3.85;;;3.00;;
51374;SDS011;37465;52.738;4.752;2023-02-28T17:10:10;7.57;;;3.75;;
51374;SDS011;37465;52.738;4.752;2023-02-28T17:12:41;7.95;;;4.53;;
51374;SDS011;37465;52.738;4.752;2023-02-28T17:15:09;16.52;;;6.95;;
51374;SDS011;37465;52.738;4.752;2023-02-28T17:17:39;13.13;;;6.97;;
51374;SDS011;37465;52.738;4.752;2023-02-28T17:20:09;9.77;;;4.95;;
51374;SDS011;37465;52.738;4.752;2023-02-28T17:22:40;7.97;;;4.88;;
51374;SDS011;37465;52.738;4.752;2023-02-28T17:25:08;6.70;;;4.82;;
51374;SDS011;37465;52.738;4.752;2023-02-28T17:27:37;6.07;;;4.45;;
51374;SDS011;37465;52.738;4.752;2023-02-28T17:30:09;6.95;;;4.97;;
51374;SDS011;37465;52.738;4.752;2023-02-28T17:32:41;5.55;;;4.95;;
51374;SDS011;37465;52.738;4.752;2023-02-28T17:35:10;8.10;;;5.28;;
51374;SDS011;37465;52.738;4.752;2023-02-28T17:37:38;7.32;;;4.78;;
51374;SDS011;37465;52.738;4.752;2023-02-28T17:40:09;7.63;;;5.10;;
51374;SDS011;37465;52.738;4.752;2023-02-28T17:42:40;6.38;;;4.93;;
51374;SDS011;37465;52.738;4.752;2023-02-28T17:45:08;5.60;;;4.07;;
51374;SDS011;37465;52.738;4.752;2023-02-28T17:47:36;4.50;;;3.95;;
51374;SDS011;37465;52.738;4.752;2023-02-28T17:50:04;4.68;;;3.80;;
51374;SDS011;37465;52.738;4.752;2023-02-28T17:52:32;5.18;;;4.20;;
51374;SDS011;37465;52.738;4.752;2023-02-28T17:55:02;6.47;;;4.40;;
51374;SDS011;37465;52.738;4.752;2023-02-28T17:57:32;4.97;;;3.63;;
51374;SDS011;37465;52.738;4.752;2023-02-28T17:59:59;7.00;;;3.67;;
51374;SDS011;37465;52.738;4.752;2023-02-28T18:02:31;5.97;;;3.47;;
51374;SDS011;37465;52.738;4.752;2023-02-28T18:04:59;5.03;;;3.33;;
51374;SDS011;37465;52.738;4.752;2023-02-28T18:07:26;17.17;;;9.80;;
51374;SDS011;37465;52.738;4.752;2023-02-28T18:09:54;6.57;;;4.20;;
51374;SDS011;37465;52.738;4.752;2023-02-28T18:12:21;5.63;;;4.07;;
51374;SDS011;37465;52.738;4.752;2023-02-28T18:14:50;4.70;;;3.50;;
51374;SDS011;37465;52.738;4.752;2023-02-28T18:17:18;4.95;;;3.28;;
51374;SDS011;37465;52.738;4.752;2023-02-28T18:19:46;5.03;;;3.58;;
51374;SDS011;37465;52.738;4.752;2023-02-28T18:22:13;4.60;;;3.25;;
51374;SDS011;37465;52.738;4.752;2023-02-28T18:24:41;6.13;;;4.00;;
51374;SDS011;37465;52.738;4.752;2023-02-28T18:27:09;4.13;;;3.30;;
51374;SDS011;37465;52.738;4.752;2023-02-28T18:29:37;4.82;;;3.78;;
51374;SDS011;37465;52.738;4.752;2023-02-28T18:32:08;4.75;;;3.63;;
51374;SDS011;37465;52.738;4.752;2023-02-28T18:34:36;5.88;;;3.70;;
51374;SDS011;37465;52.738;4.752;2023-02-28T18:37:03;4.75;;;2.90;;
51374;SDS011;37465;52.738;4.752;2023-02-28T18:39:31;4.97;;;3.15;;
51374;SDS011;37465;52.738;4.752;2023-02-28T18:41:59;4.43;;;2.45;;
51374;SDS011;37465;52.738;4.752;2023-02-28T18:44:26;5.55;;;3.10;;
51374;SDS011;37465;52.738;4.752;2023-02-28T18:46:54;13.60;;;7.28;;
51374;SDS011;37465;52.738;4.752;2023-02-28T18:49:23;8.00;;;4.43;;
51374;SDS011;37465;52.738;4.752;2023-02-28T18:51:51;5.72;;;3.70;;
51374;SDS011;37465;52.738;4.752;2023-02-28T18:54:18;4.60;;;3.28;;
51374;SDS011;37465;52.738;4.752;2023-02-28T18:56:46;5.70;;;4.40;;
51374;SDS011;37465;52.738;4.752;2023-02-28T18:59:15;7.97;;;5.93;;
51374;SDS011;37465;52.738;4.752;2023-02-28T19:01:43;6.88;;;4.72;;
51374;SDS011;37465;52.738;4.752;2023-02-28T19:04:12;4.50;;;3.85;;
51374;SDS011;37465;52.738;4.752;2023-02-28T19:06:41;5.15;;;3.40;;
51374;SDS011;37465;52.738;4.752;2023-02-28T19:09:09;5.45;;;3.13;;
51374;SDS011;37465;52.738;4.752;2023-02-28T19:11:37;4.88;;;3.78;;
51374;SDS011;37465;52.738;4.752;2023-02-28T19:14:05;4.45;;;3.67;;
51374;SDS011;37465;52.738;4.752;2023-02-28T19:16:34;6.85;;;4.35;;
51374;SDS011;37465;52.738;4.752;2023-02-28T19:19:02;6.00;;;5.40;;
51374;SDS011;37465;52.738;4.752;2023-02-28T19:21:30;7.32;;;5.25;;
51374;SDS011;37465;52.738;4.752;2023-02-28T19:24:00;7.80;;;5.30;;
51374;SDS011;37465;52.738;4.752;2023-02-28T19:26:28;9.70;;;6.10;;
51374;SDS011;37465;52.738;4.752;2023-02-28T19:28:56;8.80;;;5.22;;
51374;SDS011;37465;52.738;4.752;2023-02-28T19:31:24;8.18;;;4.82;;
51374;SDS011;37465;52.738;4.752;2023-02-28T19:33:53;8.95;;;5.25;;
51374;SDS011;37465;52.738;4.752;2023-02-28T19:36:24;7.20;;;6.20;;
51374;SDS011;37465;52.738;4.752;2023-02-28T19:38:52;6.97;;;5.82;;
51374;SDS011;37465;52.738;4.752;2023-02-28T19:41:21;9.77;;;5.65;;
51374;SDS011;37465;52.738;4.752;2023-02-28T19:43:51;8.07;;;5.55;;
51374;SDS011;37465;52.738;4.752;2023-02-28T19:46:19;7.72;;;4.57;;
51374;SDS011;37465;52.738;4.752;2023-02-28T19:48:46;8.43;;;4.75;;
51374;SDS011;37465;52.738;4.752;2023-02-28T19:51:14;8.70;;;5.78;;
51374;SDS011;37465;52.738;4.752;2023-02-28T19:53:47;7.85;;;4.78;;
51374;SDS011;37465;52.738;4.752;2023-02-28T19:56:15;7.55;;;5.47;;
51374;SDS011;37465;52.738;4.752;2023-02-28T19:58:44;6.53;;;4.25;;
51374;SDS011;37465;52.738;4.752;2023-02-28T20:01:12;7.03;;;4.78;;
51374;SDS011;37465;52.738;4.752;2023-02-28T20:03:41;7.28;;;4.65;;
51374;SDS011;37465;52.738;4.752;2023-02-28T20:06:09;6.25;;;4.35;;
51374;SDS011;37465;52.738;4.752;2023-02-28T20:08:39;6.55;;;4.50;;
51374;SDS011;37465;52.738;4.752;2023-02-28T20:11:08;7.47;;;4.35;;
51374;SDS011;37465;52.738;4.752;2023-02-28T20:16:06;8.68;;;3.92;;
51374;SDS011;37465;52.738;4.752;2023-02-28T20:18:35;5.85;;;4.20;;
51374;SDS011;37465;52.738;4.752;2023-02-28T20:21:03;7.05;;;4.13;;
51374;SDS011;37465;52.738;4.752;2023-02-28T20:23:31;7.47;;;4.45;;
51374;SDS011;37465;52.738;4.752;2023-02-28T20:25:58;4.95;;;3.42;;
51374;SDS011;37465;52.738;4.752;2023-02-28T20:28:26;6.70;;;4.28;;
51374;SDS011;37465;52.738;4.752;2023-02-28T20:30:54;6.07;;;4.22;;
51374;SDS011;37465;52.738;4.752;2023-02-28T20:33:23;4.70;;;3.42;;
51374;SDS011;37465;52.738;4.752;2023-02-28T20:35:56;5.85;;;4.35;;
51374;SDS011;37465;52.738;4.752;2023-02-28T20:38:25;6.72;;;4.40;;
51374;SDS011;37465;52.738;4.752;2023-02-28T20:40:53;7.88;;;4.45;;
51374;SDS011;37465;52.738;4.752;2023-02-28T20:43:21;10.65;;;6.55;;
51374;SDS011;37465;52.738;4.752;2023-02-28T20:45:49;8.52;;;5.90;;
51374;SDS011;37465;52.738;4.752;2023-02-28T20:48:17;7.30;;;4.82;;
51374;SDS011;37465;52.738;4.752;2023-02-28T20:50:48;7.00;;;4.88;;
51374;SDS011;37465;52.738;4.752;2023-02-28T20:53:16;9.43;;;5.65;;
51374;SDS011;37465;52.738;4.752;2023-02-28T20:55:52;7.00;;;5.13;;
51374;SDS011;37465;52.738;4.752;2023-02-28T20:58:20;5.07;;;3.78;;
51374;SDS011;37465;52.738;4.752;2023-02-28T21:00:48;6.40;;;4.53;;
51374;SDS011;37465;52.738;4.752;2023-02-28T21:03:16;6.80;;;4.32;;
51374;SDS011;37465;52.738;4.752;2023-02-28T21:05:44;6.85;;;3.72;;
51374;SDS011;37465;52.738;4.752;2023-02-28T21:08:13;5.78;;;4.22;;
51374;SDS011;37465;52.738;4.752;2023-02-28T21:10:40;7.07;;;4.90;;
51374;SDS011;37465;52.738;4.752;2023-02-28T21:13:08;8.63;;;4.40;;
51374;SDS011;37465;52.738;4.752;2023-02-28T21:15:36;5.35;;;4.25;;
51374;SDS011;37465;52.738;4.752;2023-02-28T21:18:04;9.40;;;5.53;;
51374;SDS011;37465;52.738;4.752;2023-02-28T21:20:31;8.48;;;5.28;;
51374;SDS011;37465;52.738;4.752;2023-02-28T21:22:59;11.50;;;5.45;;
51374;SDS011;37465;52.738;4.752;2023-02-28T21:25:28;9.85;;;4.80;;
51374;SDS011;37465;52.738;4.752;2023-02-28T21:27:55;7.82;;;5.20;;
51374;SDS011;37465;52.738;4.752;2023-02-28T21:30:23;7.50;;;5.72;;
51374;SDS011;37465;52.738;4.752;2023-02-28T21:32:51;10.82;;;7.90;;
51374;SDS011;37465;52.738;4.752;2023-02-28T21:35:19;8.77;;;6.10;;
51374;SDS011;37465;52.738;4.752;2023-02-28T21:37:46;8.35;;;5.55;;
51374;SDS011;37465;52.738;4.752;2023-02-28T21:40:14;5.97;;;4.45;;
51374;SDS011;37465;52.738;4.752;2023-02-28T21:42:43;8.65;;;5.55;;
51374;SDS011;37465;52.738;4.752;2023-02-28T21:45:11;6.95;;;4.78;;
51374;SDS011;37465;52.738;4.752;2023-02-28T21:47:38;8.48;;;5.15;;
51374;SDS011;37465;52.738;4.752;2023-02-28T21:50:07;6.25;;;4.43;;
51374;SDS011;37465;52.738;4.752;2023-02-28T21:52:35;5.18;;;4.15;;
51374;SDS011;37465;52.738;4.752;2023-02-28T21:55:03;9.13;;;5.28;;
51374;SDS011;37465;52.738;4.752;2023-02-28T21:57:31;7.57;;;4.80;;
51374;SDS011;37465;52.738;4.752;2023-02-28T22:00:02;6.30;;;4.75;;
51374;SDS011;37465;52.738;4.752;2023-02-28T22:02:31;7.97;;;4.85;;
51374;SDS011;37465;52.738;4.752;2023-02-28T22:04:59;6.15;;;4.70;;
51374;SDS011;37465;52.738;4.752;2023-02-28T22:07:28;8.75;;;4.80;;
51374;SDS011;37465;52.738;4.752;2023-02-28T22:09:56;7.10;;;5.35;;
51374;SDS011;37465;52.738;4.752;2023-02-28T22:12:23;11.88;;;5.25;;
51374;SDS011;37465;52.738;4.752;2023-02-28T22:14:51;9.95;;;5.47;;
51374;SDS011;37465;52.738;4.752;2023-02-28T22:17:20;8.27;;;5.10;;
51374;SDS011;37465;52.738;4.752;2023-02-28T22:19:48;8.13;;;5.18;;
51374;SDS011;37465;52.738;4.752;2023-02-28T22:22:16;6.78;;;4.53;;
51374;SDS011;37465;52.738;4.752;2023-02-28T22:24:43;8.15;;;5.07;;
51374;SDS011;37465;52.738;4.752;2023-02-28T22:27:11;9.27;;;5.45;;
51374;SDS011;37465;52.738;4.752;2023-02-28T22:29:39;10.60;;;5.82;;
51374;SDS011;37465;52.738;4.752;2023-02-28T22:32:07;7.50;;;4.15;;
51374;SDS011;37465;52.738;4.752;2023-02-28T22:34:36;10.60;;;4.88;;
51374;SDS011;37465;52.738;4.752;2023-02-28T22:37:04;8.05;;;3.92;;
51374;SDS011;37465;52.738;4.752;2023-02-28T22:39:31;7.25;;;4.97;;
51374;SDS011;37465;52.738;4.752;2023-02-28T22:41:59;10.15;;;5.15;;
51374;SDS011;37465;52.738;4.752;2023-02-28T22:44:26;8.48;;;5.07;;
51374;SDS011;37465;52.738;4.752;2023-02-28T22:46:54;7.72;;;4.88;;
51374;SDS011;37465;52.738;4.752;2023-02-28T22:49:22;6.35;;;4.45;;
51374;SDS011;37465;52.738;4.752;2023-02-28T22:51:51;8.88;;;4.55;;
51374;SDS011;37465;52.738;4.752;2023-02-28T22:54:19;7.82;;;4.57;;
51374;SDS011;37465;52.738;4.752;2023-02-28T22:56:46;6.85;;;4.25;;
51374;SDS011;37465;52.738;4.752;2023-02-28T22:59:14;6.43;;;3.92;;
51374;SDS011;37465;52.738;4.752;2023-02-28T23:01:42;7.50;;;3.88;;
51374;SDS011;37465;52.738;4.752;2023-02-28T23:04:10;8.50;;;5.10;;
51374;SDS011;37465;52.738;4.752;2023-02-28T23:06:38;7.97;;;3.70;;
51374;SDS011;37465;52.738;4.752;2023-02-28T23:09:10;6.57;;;4.22;;
51374;SDS011;37465;52.738;4.752;2023-02-28T23:11:41;7.25;;;4.25;;
51374;SDS011;37465;52.738;4.752;2023-02-28T23:14:09;7.07;;;4.43;;
51374;SDS011;37465;52.738;4.752;2023-02-28T23:16:40;7.15;;;4.13;;
51374;SDS011;37465;52.738;4.752;2023-02-28T23:19:09;8.45;;;4.50;;
51374;SDS011;37465;52.738;4.752;2023-02-28T23:21:38;8.60;;;4.55;;
51374;SDS011;37465;52.738;4.752;2023-02-28T23:24:07;7.57;;;4.40;;
51374;SDS011;37465;52.738;4.752;2023-02-28T23:29:05;6.63;;;4.38;;
51374;SDS011;37465;52.738;4.752;2023-02-28T23:31:33;6.65;;;3.85;;
51374;SDS011;37465;52.738;4.752;2023-02-28T23:34:01;7.93;;;4.38;;
51374;SDS011;37465;52.738;4.752;2023-02-28T23:36:29;8.65;;;4.15;;
51374;SDS011;37465;52.738;4.752;2023-02-28T23:38:57;6.35;;;3.92;;
51374;SDS011;37465;52.738;4.752;2023-02-28T23:41:25;8.10;;;4.72;;
51374;SDS011;37465;52.738;4.752;2023-02-28T23:43:54;7.38;;;4.30;;
51374;SDS011;37465;52.738;4.752;2023-02-28T23:46:22;6.97;;;3.92;;
51374;SDS011;37465;52.738;4.752;2023-02-28T23:48:49;5.55;;;3.53;;
51374;SDS011;37465;52.738;4.752;2023-02-28T23:51:17;8.20;;;4.15;;
51374;SDS011;37465;52.738;4.752;2023-02-28T23:53:46;6.13;;;3.53;;
51374;SDS011;37465;52.738;4.752;2023-02-28T23:56:16;7.88;;;4.15;;
51374;SDS011;37465;52.738;4.752;2023-02-28T23:58:45;6.35;;;3.88;;
